createdAt,value
2019-01-06T00:00:11.571Z,0.00
2019-01-06T00:01:11.566Z,0.00
2019-01-06T00:02:11.550Z,0.00
2019-01-06T00:03:11.545Z,0.00
2019-01-06T00:04:11.539Z,0.00
2019-01-06T00:05:11.528Z,0.00
2019-01-06T00:06:11.511Z,0.00
2019-01-06T00:07:11.504Z,0.00
2019-01-06T00:08:11.495Z,0.00
2019-01-06T00:09:11.486Z,0.00
2019-01-06T00:10:11.475Z,0.00
2019-01-06T00:11:11.469Z,0.00
2019-01-06T00:12:11.458Z,0.00
2019-01-06T00:13:11.450Z,0.00
2019-01-06T00:14:11.437Z,0.00
2019-01-06T00:15:11.429Z,0.00
2019-01-06T00:16:11.420Z,0.00
2019-01-06T00:17:11.410Z,0.00
2019-01-06T00:18:11.400Z,0.00
2019-01-06T00:19:11.392Z,0.00
2019-01-06T00:20:11.382Z,0.00
2019-01-06T00:21:11.372Z,0.00
2019-01-06T00:22:11.361Z,0.00
2019-01-06T00:23:11.355Z,0.00
2019-01-06T00:24:11.346Z,0.00
2019-01-06T00:25:11.336Z,0.00
2019-01-06T00:26:11.327Z,0.00
2019-01-06T00:27:11.316Z,0.00
2019-01-06T00:28:11.302Z,0.00
2019-01-06T00:29:11.296Z,0.00
2019-01-06T00:30:11.293Z,0.00
2019-01-06T00:31:11.276Z,0.00
2019-01-06T00:32:11.268Z,0.00
2019-01-06T00:33:11.261Z,0.00
2019-01-06T00:34:11.250Z,0.00
2019-01-06T00:35:11.239Z,0.00
2019-01-06T00:36:11.229Z,0.00
2019-01-06T00:37:11.218Z,0.00
2019-01-06T00:38:11.211Z,0.00
2019-01-06T00:39:11.200Z,0.00
2019-01-06T00:40:11.189Z,0.00
2019-01-06T00:41:11.180Z,0.00
2019-01-06T00:42:11.171Z,0.00
2019-01-06T00:43:11.160Z,0.00
2019-01-06T00:44:11.153Z,0.00
2019-01-06T00:45:11.141Z,0.00
2019-01-06T00:46:11.134Z,0.00
2019-01-06T00:47:11.130Z,0.00
2019-01-06T00:48:11.113Z,0.00
2019-01-06T00:49:11.106Z,0.00
2019-01-06T00:50:11.100Z,0.00
2019-01-06T00:51:11.087Z,0.00
2019-01-06T00:52:11.081Z,0.00
2019-01-06T00:53:11.071Z,0.00
2019-01-06T00:54:11.059Z,0.00
2019-01-06T00:55:11.053Z,0.00
2019-01-06T00:56:11.041Z,0.00
2019-01-06T00:57:11.027Z,0.00
2019-01-06T00:58:11.021Z,0.00
2019-01-06T00:59:11.038Z,0.00
2019-01-06T01:00:11.001Z,0.00
2019-01-06T01:01:10.994Z,0.00
2019-01-06T01:02:10.982Z,0.00
2019-01-06T01:03:10.975Z,0.00
2019-01-06T01:04:10.959Z,0.00
2019-01-06T01:05:10.955Z,0.00
2019-01-06T01:06:10.946Z,0.00
2019-01-06T01:07:10.933Z,0.00
2019-01-06T01:08:10.924Z,0.00
2019-01-06T01:09:10.917Z,0.00
2019-01-06T01:10:10.906Z,0.00
2019-01-06T01:11:10.893Z,0.00
2019-01-06T01:12:10.886Z,0.00
2019-01-06T01:13:10.878Z,0.00
2019-01-06T01:14:10.865Z,0.00
2019-01-06T01:15:10.857Z,0.00
2019-01-06T01:16:10.846Z,0.00
2019-01-06T01:17:10.833Z,0.00
2019-01-06T01:18:10.828Z,0.00
2019-01-06T01:19:10.817Z,0.00
2019-01-06T01:20:10.806Z,0.00
2019-01-06T01:21:10.799Z,0.00
2019-01-06T01:22:10.794Z,0.00
2019-01-06T01:23:10.774Z,0.00
2019-01-06T01:24:10.768Z,0.00
2019-01-06T01:25:10.760Z,0.00
2019-01-06T01:26:10.753Z,0.00
2019-01-06T01:27:10.739Z,0.00
2019-01-06T01:28:10.731Z,0.00
2019-01-06T01:29:10.720Z,0.00
2019-01-06T01:30:10.714Z,0.00
2019-01-06T01:31:10.700Z,0.00
2019-01-06T01:32:10.690Z,0.00
2019-01-06T01:33:10.681Z,0.00
2019-01-06T01:34:10.673Z,0.00
2019-01-06T01:35:10.662Z,0.00
2019-01-06T01:36:10.652Z,0.00
2019-01-06T01:37:10.638Z,0.00
2019-01-06T01:38:10.695Z,0.00
2019-01-06T01:39:10.623Z,0.00
2019-01-06T01:40:10.612Z,0.00
2019-01-06T01:41:10.602Z,0.00
2019-01-06T01:42:10.595Z,0.00
2019-01-06T01:43:10.585Z,0.00
2019-01-06T01:44:10.573Z,0.00
2019-01-06T01:45:10.565Z,0.00
2019-01-06T01:46:10.557Z,0.00
2019-01-06T01:47:10.546Z,0.00
2019-01-06T01:48:10.536Z,0.00
2019-01-06T01:49:10.526Z,0.00
2019-01-06T01:50:10.517Z,0.00
2019-01-06T01:51:10.502Z,0.00
2019-01-06T01:52:10.496Z,0.00
2019-01-06T01:53:10.488Z,0.00
2019-01-06T01:54:10.483Z,0.00
2019-01-06T01:55:10.470Z,0.00
2019-01-06T01:56:10.459Z,0.00
2019-01-06T01:57:10.448Z,0.00
2019-01-06T01:58:10.440Z,0.00
2019-01-06T01:59:10.428Z,0.00
2019-01-06T02:00:10.418Z,0.00
2019-01-06T02:01:10.414Z,0.00
2019-01-06T02:02:10.403Z,0.00
2019-01-06T02:03:10.390Z,0.00
2019-01-06T02:04:10.378Z,0.00
2019-01-06T02:05:10.373Z,0.00
2019-01-06T02:06:10.365Z,0.00
2019-01-06T02:07:10.357Z,0.00
2019-01-06T02:08:10.344Z,0.00
2019-01-06T02:09:10.337Z,0.00
2019-01-06T02:10:10.325Z,0.00
2019-01-06T02:11:10.312Z,0.00
2019-01-06T02:12:10.306Z,0.00
2019-01-06T02:13:10.301Z,0.00
2019-01-06T02:14:10.286Z,0.00
2019-01-06T02:15:10.277Z,0.00
2019-01-06T02:16:10.267Z,0.00
2019-01-06T02:17:10.266Z,0.00
2019-01-06T02:18:10.246Z,0.00
2019-01-06T02:19:10.236Z,0.00
2019-01-06T02:20:10.227Z,0.00
2019-01-06T02:21:10.219Z,0.00
2019-01-06T02:22:10.209Z,0.00
2019-01-06T02:23:10.206Z,0.00
2019-01-06T02:24:10.191Z,0.00
2019-01-06T02:25:10.181Z,0.00
2019-01-06T02:26:10.172Z,0.00
2019-01-06T02:27:10.159Z,0.00
2019-01-06T02:28:10.150Z,0.00
2019-01-06T02:29:10.142Z,0.00
2019-01-06T02:30:10.124Z,0.00
2019-01-06T02:31:10.118Z,0.00
2019-01-06T02:32:10.119Z,0.00
2019-01-06T02:33:10.104Z,0.00
2019-01-06T02:34:10.090Z,0.00
2019-01-06T02:35:10.082Z,0.00
2019-01-06T02:36:10.076Z,0.00
2019-01-06T02:37:10.063Z,0.00
2019-01-06T02:38:10.052Z,0.00
2019-01-06T02:39:10.045Z,0.00
2019-01-06T02:40:10.030Z,0.00
2019-01-06T02:41:10.023Z,0.00
2019-01-06T02:42:10.015Z,0.00
2019-01-06T02:43:10.000Z,0.00
2019-01-06T02:44:09.992Z,0.00
2019-01-06T02:45:09.981Z,0.00
2019-01-06T02:46:09.974Z,0.00
2019-01-06T02:47:09.964Z,0.00
2019-01-06T02:48:09.951Z,0.00
2019-01-06T02:49:09.944Z,0.00
2019-01-06T02:50:09.930Z,0.00
2019-01-06T02:51:09.921Z,0.00
2019-01-06T02:52:09.908Z,0.00
2019-01-06T02:53:09.902Z,0.00
2019-01-06T02:54:09.894Z,0.00
2019-01-06T02:55:09.884Z,0.00
2019-01-06T02:56:09.873Z,0.00
2019-01-06T02:57:09.862Z,0.00
2019-01-06T02:58:09.849Z,0.00
2019-01-06T02:59:09.841Z,0.00
2019-01-06T03:00:09.830Z,0.00
2019-01-06T03:01:09.823Z,0.00
2019-01-06T03:02:09.815Z,0.00
2019-01-06T03:03:09.803Z,0.00
2019-01-06T03:04:09.793Z,0.00
2019-01-06T03:05:09.780Z,0.00
2019-01-06T03:06:09.768Z,0.00
2019-01-06T03:07:09.760Z,0.00
2019-01-06T03:08:09.755Z,0.00
2019-01-06T03:09:09.739Z,0.00
2019-01-06T03:10:09.730Z,0.00
2019-01-06T03:11:09.724Z,0.00
2019-01-06T03:12:09.708Z,0.00
2019-01-06T03:13:09.700Z,0.00
2019-01-06T03:14:09.693Z,0.00
2019-01-06T03:15:10.507Z,0.00
2019-01-06T03:16:09.672Z,0.00
2019-01-06T03:17:09.660Z,0.00
2019-01-06T03:18:09.646Z,0.00
2019-01-06T03:19:09.634Z,0.00
2019-01-06T03:20:09.630Z,0.00
2019-01-06T03:21:09.619Z,0.00
2019-01-06T03:22:09.610Z,0.00
2019-01-06T03:23:09.598Z,0.00
2019-01-06T03:24:11.508Z,0.00
2019-01-06T03:25:09.578Z,0.00
2019-01-06T03:26:09.569Z,0.00
2019-01-06T03:27:09.565Z,0.00
2019-01-06T03:28:09.552Z,0.00
2019-01-06T03:29:09.539Z,0.00
2019-01-06T03:30:09.528Z,0.00
2019-01-06T03:31:09.517Z,0.00
2019-01-06T03:32:09.513Z,0.00
2019-01-06T03:33:09.499Z,0.00
2019-01-06T03:34:09.489Z,0.00
2019-01-06T03:35:09.477Z,0.00
2019-01-06T03:36:09.466Z,0.00
2019-01-06T03:37:09.455Z,0.00
2019-01-06T03:38:09.446Z,0.00
2019-01-06T03:39:09.439Z,0.00
2019-01-06T03:40:09.427Z,0.00
2019-01-06T03:41:09.417Z,0.00
2019-01-06T03:42:09.406Z,0.00
2019-01-06T03:43:09.393Z,0.00
2019-01-06T03:44:09.384Z,0.00
2019-01-06T03:45:09.378Z,0.00
2019-01-06T03:46:09.368Z,0.00
2019-01-06T03:47:09.353Z,0.00
2019-01-06T03:48:09.346Z,0.00
2019-01-06T03:49:09.333Z,0.00
2019-01-06T03:50:09.322Z,0.00
2019-01-06T03:51:09.313Z,0.00
2019-01-06T03:52:09.306Z,0.00
2019-01-06T03:53:09.294Z,0.00
2019-01-06T03:54:09.282Z,0.00
2019-01-06T03:55:09.268Z,0.00
2019-01-06T03:56:09.261Z,0.00
2019-01-06T03:57:09.250Z,0.00
2019-01-06T03:58:09.241Z,0.00
2019-01-06T03:59:09.229Z,0.00
2019-01-06T04:00:09.218Z,0.00
2019-01-06T04:01:09.209Z,0.00
2019-01-06T04:02:09.198Z,0.00
2019-01-06T04:03:09.189Z,0.00
2019-01-06T04:04:09.177Z,0.00
2019-01-06T04:05:09.169Z,0.00
2019-01-06T04:06:09.158Z,0.00
2019-01-06T04:07:09.146Z,0.00
2019-01-06T04:08:09.135Z,0.00
2019-01-06T04:09:09.130Z,0.00
2019-01-06T04:10:09.112Z,0.00
2019-01-06T04:11:15.077Z,0.00
2019-01-06T04:12:09.100Z,0.00
2019-01-06T04:13:09.084Z,0.00
2019-01-06T04:14:09.076Z,0.00
2019-01-06T04:15:09.063Z,0.00
2019-01-06T04:16:09.132Z,0.00
2019-01-06T04:17:09.044Z,0.00
2019-01-06T04:18:09.035Z,0.00
2019-01-06T04:19:09.021Z,0.00
2019-01-06T04:20:09.010Z,0.00
2019-01-06T04:21:09.001Z,0.00
2019-01-06T04:22:08.988Z,0.00
2019-01-06T04:23:08.974Z,0.00
2019-01-06T04:24:08.969Z,0.00
2019-01-06T04:25:08.958Z,0.00
2019-01-06T04:26:08.945Z,0.00
2019-01-06T04:27:08.934Z,0.00
2019-01-06T04:28:08.927Z,0.00
2019-01-06T04:29:08.912Z,0.00
2019-01-06T04:30:08.902Z,0.00
2019-01-06T04:31:08.894Z,0.00
2019-01-06T04:32:08.890Z,0.00
2019-01-06T04:33:08.874Z,0.00
2019-01-06T04:34:08.873Z,0.00
2019-01-06T04:35:08.846Z,0.00
2019-01-06T04:36:08.840Z,0.00
2019-01-06T04:37:08.833Z,0.00
2019-01-06T04:38:08.823Z,0.00
2019-01-06T04:39:08.809Z,0.00
2019-01-06T04:40:08.798Z,0.00
2019-01-06T04:41:08.788Z,0.00
2019-01-06T04:42:08.777Z,0.00
2019-01-06T04:43:08.762Z,0.00
2019-01-06T04:44:08.756Z,0.00
2019-01-06T04:45:08.756Z,0.00
2019-01-06T04:46:08.733Z,0.00
2019-01-06T04:47:08.722Z,0.00
2019-01-06T04:48:08.715Z,0.00
2019-01-06T04:49:08.701Z,0.00
2019-01-06T04:50:08.691Z,0.00
2019-01-06T04:51:08.680Z,0.00
2019-01-06T04:52:08.671Z,0.00
2019-01-06T04:53:08.659Z,0.00
2019-01-06T04:54:08.647Z,0.00
2019-01-06T04:55:08.634Z,0.00
2019-01-06T04:56:08.627Z,0.00
2019-01-06T04:57:08.618Z,0.00
2019-01-06T04:58:08.608Z,0.00
2019-01-06T04:59:08.596Z,0.00
2019-01-06T05:00:08.584Z,0.00
2019-01-06T05:01:08.575Z,0.00
2019-01-06T05:02:08.559Z,0.00
2019-01-06T05:03:08.549Z,0.00
2019-01-06T05:04:08.549Z,0.00
2019-01-06T05:05:08.534Z,0.00
2019-01-06T05:06:08.523Z,0.00
2019-01-06T05:07:08.514Z,0.00
2019-01-06T05:08:08.498Z,0.00
2019-01-06T05:09:08.493Z,0.00
2019-01-06T05:10:08.478Z,0.00
2019-01-06T05:11:08.472Z,0.00
2019-01-06T05:12:08.461Z,0.00
2019-01-06T05:13:08.454Z,0.00
2019-01-06T05:14:08.438Z,0.00
2019-01-06T05:15:08.424Z,0.00
2019-01-06T05:16:08.420Z,0.00
2019-01-06T05:17:08.409Z,0.00
2019-01-06T05:18:08.398Z,0.00
2019-01-06T05:19:08.390Z,0.00
2019-01-06T05:20:08.378Z,0.00
2019-01-06T05:21:08.362Z,0.00
2019-01-06T05:22:08.359Z,0.00
2019-01-06T05:23:08.348Z,0.00
2019-01-06T05:24:08.337Z,0.00
2019-01-06T05:25:08.335Z,0.00
2019-01-06T05:26:08.314Z,0.00
2019-01-06T05:27:08.308Z,0.00
2019-01-06T05:28:08.295Z,0.00
2019-01-06T05:29:08.284Z,0.00
2019-01-06T05:30:08.275Z,0.00
2019-01-06T05:31:08.267Z,0.00
2019-01-06T05:32:08.254Z,0.00
2019-01-06T05:33:08.244Z,0.00
2019-01-06T05:34:08.244Z,0.00
2019-01-06T05:35:08.220Z,0.00
2019-01-06T05:36:08.212Z,0.00
2019-01-06T05:37:08.204Z,0.00
2019-01-06T05:38:08.226Z,0.00
2019-01-06T05:39:08.182Z,0.00
2019-01-06T05:40:08.174Z,0.00
2019-01-06T05:41:08.159Z,0.00
2019-01-06T05:42:08.152Z,0.00
2019-01-06T05:43:08.138Z,0.00
2019-01-06T05:44:08.137Z,0.00
2019-01-06T05:45:08.129Z,0.00
2019-01-06T05:46:08.109Z,0.00
2019-01-06T05:47:08.099Z,0.00
2019-01-06T05:48:08.080Z,0.00
2019-01-06T05:49:08.080Z,0.00
2019-01-06T05:50:08.068Z,0.00
2019-01-06T05:51:08.059Z,0.00
2019-01-06T05:52:08.074Z,0.00
2019-01-06T05:53:08.038Z,0.00
2019-01-06T05:54:08.025Z,0.00
2019-01-06T05:55:08.020Z,0.00
2019-01-06T05:56:08.009Z,0.00
2019-01-06T05:57:07.996Z,0.00
2019-01-06T05:58:07.991Z,0.00
2019-01-06T05:59:07.976Z,0.00
2019-01-06T06:00:07.965Z,0.00
2019-01-06T06:01:07.957Z,0.00
2019-01-06T06:02:07.945Z,0.00
2019-01-06T06:03:07.933Z,0.00
2019-01-06T06:04:07.922Z,0.00
2019-01-06T06:05:07.910Z,0.00
2019-01-06T06:06:07.900Z,0.00
2019-01-06T06:07:11.458Z,0.00
2019-01-06T06:08:07.873Z,0.00
2019-01-06T06:09:07.865Z,0.00
2019-01-06T06:10:07.854Z,0.00
2019-01-06T06:11:07.843Z,0.00
2019-01-06T06:12:07.834Z,0.00
2019-01-06T06:13:07.823Z,0.00
2019-01-06T06:14:07.818Z,0.00
2019-01-06T06:15:07.887Z,0.00
2019-01-06T06:16:07.791Z,0.00
2019-01-06T06:17:07.783Z,0.00
2019-01-06T06:18:07.775Z,0.00
2019-01-06T06:19:07.759Z,0.00
2019-01-06T06:20:07.744Z,0.00
2019-01-06T06:21:07.737Z,0.00
2019-01-06T06:22:07.750Z,0.00
2019-01-06T06:23:07.716Z,0.00
2019-01-06T06:24:07.703Z,0.00
2019-01-06T06:25:07.694Z,0.00
2019-01-06T06:26:07.678Z,0.00
2019-01-06T06:27:07.666Z,0.00
2019-01-06T06:28:07.661Z,0.00
2019-01-06T06:29:07.648Z,0.00
2019-01-06T06:30:07.633Z,0.00
2019-01-06T06:31:07.664Z,0.00
2019-01-06T06:32:07.617Z,0.00
2019-01-06T06:33:07.603Z,0.00
2019-01-06T06:34:07.595Z,0.00
2019-01-06T06:35:07.576Z,0.00
2019-01-06T06:36:07.569Z,0.00
2019-01-06T06:37:07.558Z,0.00
2019-01-06T06:38:07.544Z,0.00
2019-01-06T06:39:07.537Z,0.00
2019-01-06T06:40:07.521Z,0.00
2019-01-06T06:41:07.510Z,0.00
2019-01-06T06:42:07.505Z,0.00
2019-01-06T06:43:07.493Z,0.00
2019-01-06T06:44:07.482Z,0.00
2019-01-06T06:45:07.529Z,0.00
2019-01-06T06:46:07.501Z,0.00
2019-01-06T06:47:07.483Z,0.00
2019-01-06T06:48:07.501Z,0.00
2019-01-06T06:49:07.606Z,0.00
2019-01-06T06:50:07.448Z,0.00
2019-01-06T06:51:07.493Z,0.00
2019-01-06T06:52:07.395Z,0.00
2019-01-06T06:53:07.400Z,0.00
2019-01-06T06:54:07.375Z,4.00
2019-01-06T06:55:07.361Z,4.00
2019-01-06T06:56:07.354Z,0.00
2019-01-06T06:57:07.343Z,0.00
2019-01-06T06:58:07.330Z,4.00
2019-01-06T06:59:07.321Z,0.00
2019-01-06T07:00:07.309Z,4.00
2019-01-06T07:01:07.306Z,4.00
2019-01-06T07:02:07.295Z,8.00
2019-01-06T07:03:07.281Z,8.00
2019-01-06T07:04:07.269Z,8.00
2019-01-06T07:05:07.261Z,12.00
2019-01-06T07:06:07.248Z,8.00
2019-01-06T07:07:07.239Z,12.00
2019-01-06T07:08:07.227Z,12.00
2019-01-06T07:09:07.218Z,16.00
2019-01-06T07:10:07.208Z,20.00
2019-01-06T07:11:07.200Z,20.00
2019-01-06T07:12:07.187Z,24.00
2019-01-06T07:13:07.175Z,24.00
2019-01-06T07:14:07.163Z,28.00
2019-01-06T07:15:07.153Z,32.00
2019-01-06T07:16:07.135Z,36.00
2019-01-06T07:17:07.133Z,36.00
2019-01-06T07:18:07.125Z,36.00
2019-01-06T07:19:07.113Z,40.00
2019-01-06T07:20:07.102Z,44.00
2019-01-06T07:21:07.106Z,52.00
2019-01-06T07:22:07.085Z,56.00
2019-01-06T07:23:07.070Z,60.00
2019-01-06T07:24:07.068Z,68.00
2019-01-06T07:25:07.051Z,80.00
2019-01-06T07:26:07.039Z,88.00
2019-01-06T07:27:07.028Z,96.00
2019-01-06T07:28:07.021Z,104.00
2019-01-06T07:29:07.010Z,116.00
2019-01-06T07:30:07.002Z,124.00
2019-01-06T07:31:06.986Z,136.00
2019-01-06T07:32:06.977Z,148.00
2019-01-06T07:33:06.969Z,168.00
2019-01-06T07:34:06.958Z,180.00
2019-01-06T07:35:06.945Z,196.00
2019-01-06T07:36:06.934Z,204.00
2019-01-06T07:37:06.923Z,216.00
2019-01-06T07:38:06.926Z,236.00
2019-01-06T07:39:06.907Z,244.00
2019-01-06T07:40:06.890Z,260.00
2019-01-06T07:41:06.886Z,268.00
2019-01-06T07:42:06.882Z,288.00
2019-01-06T07:43:06.861Z,304.00
2019-01-06T07:44:06.853Z,316.00
2019-01-06T07:45:06.875Z,328.00
2019-01-06T07:46:06.831Z,344.00
2019-01-06T07:47:06.818Z,348.00
2019-01-06T07:48:06.806Z,356.00
2019-01-06T07:49:06.806Z,356.00
2019-01-06T07:50:06.789Z,360.00
2019-01-06T07:51:06.774Z,368.00
2019-01-06T07:52:06.792Z,388.00
2019-01-06T07:53:06.756Z,400.00
2019-01-06T07:54:06.748Z,424.00
2019-01-06T07:55:06.732Z,432.00
2019-01-06T07:56:06.737Z,436.00
2019-01-06T07:57:06.717Z,436.00
2019-01-06T07:58:06.700Z,448.00
2019-01-06T07:59:06.694Z,456.00
2019-01-06T08:00:14.987Z,456.00
2019-01-06T08:01:06.667Z,472.00
2019-01-06T08:02:06.663Z,488.00
2019-01-06T08:03:06.646Z,500.00
2019-01-06T08:04:06.643Z,504.00
2019-01-06T08:05:06.625Z,524.00
2019-01-06T08:06:06.615Z,544.00
2019-01-06T08:07:06.605Z,600.00
2019-01-06T08:08:06.593Z,644.00
2019-01-06T08:09:06.592Z,644.00
2019-01-06T08:10:06.567Z,636.00
2019-01-06T08:11:06.572Z,640.00
2019-01-06T08:12:06.561Z,652.00
2019-01-06T08:13:06.546Z,648.00
2019-01-06T08:14:06.535Z,664.00
2019-01-06T08:15:06.535Z,668.00
2019-01-06T08:16:06.511Z,656.00
2019-01-06T08:17:06.506Z,664.00
2019-01-06T08:18:06.490Z,672.00
2019-01-06T08:19:06.478Z,680.00
2019-01-06T08:20:06.470Z,720.00
2019-01-06T08:21:06.458Z,712.00
2019-01-06T08:22:06.455Z,704.00
2019-01-06T08:23:06.440Z,708.00
2019-01-06T08:24:06.430Z,732.00
2019-01-06T08:25:06.414Z,776.00
2019-01-06T08:26:06.406Z,796.00
2019-01-06T08:27:06.405Z,772.00
2019-01-06T08:28:06.404Z,808.00
2019-01-06T08:29:06.384Z,860.00
2019-01-06T08:30:06.368Z,884.00
2019-01-06T08:31:06.353Z,904.00
2019-01-06T08:32:06.345Z,956.00
2019-01-06T08:33:06.334Z,972.00
2019-01-06T08:34:06.327Z,988.00
2019-01-06T08:35:06.313Z,924.00
2019-01-06T08:36:06.302Z,888.00
2019-01-06T08:37:06.295Z,872.00
2019-01-06T08:38:06.281Z,832.00
2019-01-06T08:39:06.275Z,792.00
2019-01-06T08:40:06.263Z,788.00
2019-01-06T08:41:06.258Z,800.00
2019-01-06T08:42:06.245Z,816.00
2019-01-06T08:43:06.233Z,856.00
2019-01-06T08:44:06.225Z,788.00
2019-01-06T08:45:06.210Z,760.00
2019-01-06T08:46:06.204Z,804.00
2019-01-06T08:47:06.192Z,864.00
2019-01-06T08:48:06.183Z,876.00
2019-01-06T08:49:06.176Z,904.00
2019-01-06T08:50:06.168Z,920.00
2019-01-06T08:51:06.154Z,912.00
2019-01-06T08:52:06.146Z,932.00
2019-01-06T08:53:06.130Z,1024.00
2019-01-06T08:54:06.125Z,1032.00
2019-01-06T08:55:06.112Z,1084.00
2019-01-06T08:56:06.104Z,1104.00
2019-01-06T08:57:06.092Z,1168.00
2019-01-06T08:58:06.084Z,1216.00
2019-01-06T08:59:06.071Z,1272.00
2019-01-06T09:00:06.061Z,1300.00
2019-01-06T09:01:06.051Z,1232.00
2019-01-06T09:02:06.043Z,1256.00
2019-01-06T09:03:06.023Z,1448.00
2019-01-06T09:04:06.024Z,1444.00
2019-01-06T09:05:06.011Z,1448.00
2019-01-06T09:06:05.997Z,1380.00
2019-01-06T09:07:05.990Z,1368.00
2019-01-06T09:08:05.980Z,1380.00
2019-01-06T09:09:05.970Z,1432.00
2019-01-06T09:10:05.961Z,1396.00
2019-01-06T09:11:05.950Z,1368.00
2019-01-06T09:12:05.938Z,1412.00
2019-01-06T09:13:05.932Z,1420.00
2019-01-06T09:14:05.922Z,1420.00
2019-01-06T09:15:05.909Z,1368.00
2019-01-06T09:16:05.900Z,1432.00
2019-01-06T09:17:05.890Z,1460.00
2019-01-06T09:18:05.880Z,1504.00
2019-01-06T09:19:05.867Z,1544.00
2019-01-06T09:20:05.863Z,1648.00
2019-01-06T09:21:05.854Z,1740.00
2019-01-06T09:22:05.841Z,1916.00
2019-01-06T09:23:05.830Z,1892.00
2019-01-06T09:24:05.817Z,1824.00
2019-01-06T09:25:05.807Z,1892.00
2019-01-06T09:26:05.797Z,1916.00
2019-01-06T09:27:05.786Z,1936.00
2019-01-06T09:28:05.781Z,1892.00
2019-01-06T09:29:05.771Z,1884.00
2019-01-06T09:30:05.762Z,1944.00
2019-01-06T09:31:05.750Z,2060.00
2019-01-06T09:32:05.742Z,2100.00
2019-01-06T09:33:05.729Z,2012.00
2019-01-06T09:34:05.724Z,1964.00
2019-01-06T09:35:05.708Z,2040.00
2019-01-06T09:36:05.699Z,2180.00
2019-01-06T09:37:05.693Z,2280.00
2019-01-06T09:38:05.678Z,2420.00
2019-01-06T09:39:05.675Z,2596.00
2019-01-06T09:40:05.662Z,2760.00
2019-01-06T09:41:05.652Z,2868.00
2019-01-06T09:42:05.648Z,2992.00
2019-01-06T09:43:05.630Z,3084.00
2019-01-06T09:44:05.625Z,3224.00
2019-01-06T09:45:05.612Z,3236.00
2019-01-06T09:46:05.602Z,3224.00
2019-01-06T09:47:05.599Z,3188.00
2019-01-06T09:48:05.587Z,3296.00
2019-01-06T09:49:05.578Z,3260.00
2019-01-06T09:50:05.571Z,3392.00
2019-01-06T09:51:05.554Z,3488.00
2019-01-06T09:52:05.549Z,3428.00
2019-01-06T09:53:05.537Z,3460.00
2019-01-06T09:54:05.529Z,3428.00
2019-01-06T09:55:05.518Z,3524.00
2019-01-06T09:56:05.507Z,3616.00
2019-01-06T09:57:05.499Z,3544.00
2019-01-06T09:58:05.493Z,3604.00
2019-01-06T09:59:05.477Z,3732.00
2019-01-06T10:00:05.472Z,3868.00
2019-01-06T10:01:05.467Z,3692.00
2019-01-06T10:02:05.455Z,3788.00
2019-01-06T10:03:05.441Z,4096.00
2019-01-06T10:04:05.426Z,4184.00
2019-01-06T10:05:05.422Z,4040.00
2019-01-06T10:06:05.410Z,3872.00
2019-01-06T10:07:05.400Z,3716.00
2019-01-06T10:08:07.003Z,3784.00
2019-01-06T10:09:05.383Z,3912.00
2019-01-06T10:10:05.375Z,3948.00
2019-01-06T10:11:05.367Z,3828.00
2019-01-06T10:12:05.353Z,3924.00
2019-01-06T10:13:05.348Z,4072.00
2019-01-06T10:14:05.340Z,4284.00
2019-01-06T10:15:05.335Z,4324.00
2019-01-06T10:16:05.320Z,4304.00
2019-01-06T10:17:05.307Z,4244.00
2019-01-06T10:18:05.301Z,4224.00
2019-01-06T10:19:05.290Z,4168.00
2019-01-06T10:20:05.290Z,4084.00
2019-01-06T10:21:05.274Z,3944.00
2019-01-06T10:22:05.265Z,3780.00
2019-01-06T10:23:05.252Z,3724.00
2019-01-06T10:24:05.242Z,3684.00
2019-01-06T10:25:07.110Z,3676.00
2019-01-06T10:26:05.223Z,3612.00
2019-01-06T10:27:05.214Z,3500.00
2019-01-06T10:28:05.200Z,3316.00
2019-01-06T10:29:05.195Z,3172.00
2019-01-06T10:30:05.186Z,3136.00
2019-01-06T10:31:05.173Z,3192.00
2019-01-06T10:32:05.169Z,3180.00
2019-01-06T10:33:05.156Z,3180.00
2019-01-06T10:34:05.151Z,3212.00
2019-01-06T10:35:05.133Z,3288.00
2019-01-06T10:36:05.127Z,3380.00
2019-01-06T10:37:05.118Z,3476.00
2019-01-06T10:38:05.107Z,3596.00
2019-01-06T10:39:05.098Z,3676.00
2019-01-06T10:40:05.088Z,3688.00
2019-01-06T10:41:05.080Z,3676.00
2019-01-06T10:42:05.072Z,3656.00
2019-01-06T10:43:05.055Z,3600.00
2019-01-06T10:44:05.053Z,3644.00
2019-01-06T10:45:05.043Z,3716.00
2019-01-06T10:46:05.079Z,3664.00
2019-01-06T10:47:05.025Z,3556.00
2019-01-06T10:49:04.998Z,3660.00
2019-01-06T10:50:04.993Z,3804.00
2019-01-06T10:51:04.982Z,3700.00
2019-01-06T10:52:04.973Z,3612.00
2019-01-06T10:53:04.965Z,3708.00
2019-01-06T10:54:04.953Z,3764.00
2019-01-06T10:55:25.941Z,3576.00
2019-01-06T10:56:04.936Z,3300.00
2019-01-06T10:57:04.919Z,3140.00
2019-01-06T10:58:04.917Z,2976.00
2019-01-06T10:59:05.018Z,2884.00
2019-01-06T11:00:04.894Z,2952.00
2019-01-06T11:01:25.893Z,3104.00
2019-01-06T11:02:04.879Z,3368.00
2019-01-06T11:03:04.867Z,3376.00
2019-01-06T11:04:04.853Z,3496.00
2019-01-06T11:05:04.861Z,3732.00
2019-01-06T11:06:04.836Z,3892.00
2019-01-06T11:07:25.831Z,4020.00
2019-01-06T11:08:04.812Z,3992.00
2019-01-06T11:09:04.808Z,3776.00
2019-01-06T11:10:04.799Z,3700.00
2019-01-06T11:11:04.785Z,3516.00
2019-01-06T11:12:04.779Z,3484.00
2019-01-06T11:13:25.771Z,3368.00
2019-01-06T11:14:04.759Z,3268.00
2019-01-06T11:15:04.751Z,3248.00
2019-01-06T11:16:04.743Z,3392.00
2019-01-06T11:17:04.734Z,3584.00
2019-01-06T11:18:04.721Z,3636.00
2019-01-06T11:19:25.726Z,3784.00
2019-01-06T11:20:04.701Z,3808.00
2019-01-06T11:21:04.691Z,3864.00
2019-01-06T11:22:04.682Z,3520.00
2019-01-06T11:23:04.671Z,3356.00
2019-01-06T11:24:04.657Z,3084.00
2019-01-06T11:25:25.658Z,2968.00
2019-01-06T11:26:04.641Z,3044.00
2019-01-06T11:27:04.632Z,3140.00
2019-01-06T11:28:04.619Z,3244.00
2019-01-06T11:29:04.613Z,3296.00
2019-01-06T11:30:04.600Z,3404.00
2019-01-06T11:31:25.594Z,3592.00
2019-01-06T11:32:04.582Z,3524.00
2019-01-06T11:33:04.578Z,3488.00
2019-01-06T11:34:04.566Z,3428.00
2019-01-06T11:35:04.556Z,3512.00
2019-01-06T11:36:04.573Z,3588.00
2019-01-06T11:37:25.538Z,3696.00
2019-01-06T11:38:04.522Z,3732.00
2019-01-06T11:39:04.515Z,3620.00
2019-01-06T11:40:04.503Z,3728.00
2019-01-06T11:41:08.090Z,3880.00
2019-01-06T11:42:04.511Z,4052.00
2019-01-06T11:43:25.486Z,4340.00
2019-01-06T11:44:04.464Z,4340.00
2019-01-06T11:45:04.456Z,4264.00
2019-01-06T11:46:04.448Z,4200.00
2019-01-06T11:47:04.439Z,4300.00
2019-01-06T11:48:04.435Z,4344.00
2019-01-06T11:49:25.425Z,4280.00
2019-01-06T11:50:04.412Z,4160.00
2019-01-06T11:51:04.398Z,4136.00
2019-01-06T11:52:04.390Z,4056.00
2019-01-06T11:53:04.386Z,3924.00
2019-01-06T11:54:04.373Z,3856.00
2019-01-06T11:55:25.366Z,3824.00
2019-01-06T11:56:04.355Z,3776.00
2019-01-06T11:57:04.341Z,3724.00
2019-01-06T11:58:04.330Z,3768.00
2019-01-06T11:59:04.324Z,3800.00
2019-01-06T12:00:04.377Z,3588.00
2019-01-06T12:01:25.307Z,3364.00
2019-01-06T12:02:04.296Z,3140.00
2019-01-06T12:03:04.281Z,2932.00
2019-01-06T12:04:04.273Z,2936.00
2019-01-06T12:05:04.267Z,2888.00
2019-01-06T12:06:04.258Z,3064.00
2019-01-06T12:07:25.334Z,3164.00
2019-01-06T12:08:05.739Z,3256.00
2019-01-06T12:09:04.230Z,3256.00
2019-01-06T12:10:04.216Z,3168.00
2019-01-06T12:11:04.205Z,3220.00
2019-01-06T12:12:04.200Z,3280.00
2019-01-06T12:13:25.188Z,3428.00
2019-01-06T12:14:04.220Z,3428.00
2019-01-06T12:15:04.167Z,3380.00
2019-01-06T12:16:04.175Z,3376.00
2019-01-06T12:17:04.151Z,3396.00
2019-01-06T12:18:04.142Z,3360.00
2019-01-06T12:19:25.139Z,3376.00
2019-01-06T12:20:04.121Z,3168.00
2019-01-06T12:21:04.126Z,2996.00
2019-01-06T12:22:04.136Z,2896.00
2019-01-06T12:23:04.089Z,2932.00
2019-01-06T12:24:04.081Z,2960.00
2019-01-06T12:25:25.081Z,2852.00
2019-01-06T12:26:04.082Z,2816.00
2019-01-06T12:27:04.047Z,2864.00
2019-01-06T12:28:04.043Z,2884.00
2019-01-06T12:29:04.034Z,2828.00
2019-01-06T12:30:04.024Z,2828.00
2019-01-06T12:31:25.024Z,2812.00
2019-01-06T12:32:04.004Z,2840.00
2019-01-06T12:33:04.003Z,2624.00
2019-01-06T12:34:03.990Z,2400.00
2019-01-06T12:35:03.978Z,2304.00
2019-01-06T12:36:03.968Z,2300.00
2019-01-06T12:37:24.963Z,2416.00
2019-01-06T12:38:03.948Z,2368.00
2019-01-06T12:39:03.942Z,2420.00
2019-01-06T12:40:03.928Z,2432.00
2019-01-06T12:41:03.925Z,2372.00
2019-01-06T12:42:03.908Z,2264.00
2019-01-06T12:43:24.913Z,2188.00
2019-01-06T12:44:03.888Z,2224.00
2019-01-06T12:45:03.883Z,2388.00
2019-01-06T12:46:03.876Z,2412.00
2019-01-06T12:47:03.860Z,2388.00
2019-01-06T12:48:03.878Z,2408.00
2019-01-06T12:49:24.901Z,2372.00